sensor_id;sensor_type;location;lat;lon;timestamp;pressure;altitude;pressure_sealevel;temperature;humidity
72370;BME280;60343;-32.030;115.880;2023-12-29T00:00:57;101948.78;;;24.34;46.50
72370;BME280;60343;-32.030;115.880;2023-12-29T00:03:32;101953.16;;;23.82;47.37
72370;BME280;60343;-32.030;115.880;2023-12-29T00:06:09;101960.88;;;23.85;47.47
72370;BME280;60343;-32.030;115.880;2023-12-29T00:08:50;101951.78;;;24.33;46.79
72370;BME280;60343;-32.030;115.880;2023-12-29T00:11:25;101964.53;;;24.62;46.25
72370;BME280;60343;-32.030;115.880;2023-12-29T00:14:00;101969.44;;;25.07;44.58
72370;BME280;60343;-32.030;115.880;2023-12-29T00:16:36;101957.94;;;25.33;44.21
72370;BME280;60343;-32.030;115.880;2023-12-29T00:19:12;101968.22;;;25.66;43.51
72370;BME280;60343;-32.030;115.880;2023-12-29T00:21:47;101965.31;;;26.01;42.70
72370;BME280;60343;-32.030;115.880;2023-12-29T00:24:28;101962.78;;;26.11;42.67
72370;BME280;60343;-32.030;115.880;2023-12-29T00:27:05;101965.50;;;26.39;42.73
72370;BME280;60343;-32.030;115.880;2023-12-29T00:29:40;101963.25;;;26.53;41.44
72370;BME280;60343;-32.030;115.880;2023-12-29T00:32:09;101957.44;;;26.50;42.18
72370;BME280;60343;-32.030;115.880;2023-12-29T00:34:45;101971.28;;;26.10;42.27
72370;BME280;60343;-32.030;115.880;2023-12-29T00:37:20;101979.97;;;25.50;43.77
72370;BME280;60343;-32.030;115.880;2023-12-29T00:40:01;101972.78;;;25.09;44.46
72370;BME280;60343;-32.030;115.880;2023-12-29T00:42:37;101959.66;;;24.64;45.52
72370;BME280;60343;-32.030;115.880;2023-12-29T00:45:12;101965.16;;;24.88;44.65
72370;BME280;60343;-32.030;115.880;2023-12-29T00:47:48;101948.22;;;25.14;44.00
72370;BME280;60343;-32.030;115.880;2023-12-29T00:50:24;101940.94;;;25.88;42.89
72370;BME280;60343;-32.030;115.880;2023-12-29T00:52:59;101945.44;;;26.39;42.07
72370;BME280;60343;-32.030;115.880;2023-12-29T00:55:40;101946.31;;;26.78;41.42
72370;BME280;60343;-32.030;115.880;2023-12-29T00:58:16;101951.91;;;27.00;40.50
72370;BME280;60343;-32.030;115.880;2023-12-29T01:00:51;101946.53;;;27.10;40.56
72370;BME280;60343;-32.030;115.880;2023-12-29T01:03:26;101939.03;;;27.27;40.22
72370;BME280;60343;-32.030;115.880;2023-12-29T01:06:01;101943.47;;;27.28;40.01
72370;BME280;60343;-32.030;115.880;2023-12-29T01:08:36;101937.25;;;27.38;39.68
72370;BME280;60343;-32.030;115.880;2023-12-29T01:11:17;101952.66;;;27.17;39.89
72370;BME280;60343;-32.030;115.880;2023-12-29T01:13:52;101947.69;;;27.36;40.28
72370;BME280;60343;-32.030;115.880;2023-12-29T01:16:28;101944.22;;;27.67;39.32
72370;BME280;60343;-32.030;115.880;2023-12-29T01:19:03;101928.38;;;27.30;39.83
72370;BME280;60343;-32.030;115.880;2023-12-29T01:21:39;101918.78;;;27.33;40.46
72370;BME280;60343;-32.030;115.880;2023-12-29T01:24:14;101924.72;;;27.47;39.96
72370;BME280;60343;-32.030;115.880;2023-12-29T01:26:58;101925.25;;;27.65;39.69
72370;BME280;60343;-32.030;115.880;2023-12-29T01:29:36;101928.38;;;27.52;40.20
72370;BME280;60343;-32.030;115.880;2023-12-29T01:32:11;101937.09;;;28.20;38.50
72370;BME280;60343;-32.030;115.880;2023-12-29T01:34:46;101932.28;;;28.37;38.07
72370;BME280;60343;-32.030;115.880;2023-12-29T01:37:21;101922.97;;;28.85;37.37
72370;BME280;60343;-32.030;115.880;2023-12-29T01:39:57;101910.03;;;28.48;37.21
72370;BME280;60343;-32.030;115.880;2023-12-29T01:42:38;101926.78;;;28.37;37.72
72370;BME280;60343;-32.030;115.880;2023-12-29T01:45:21;101935.63;;;28.44;37.63
72370;BME280;60343;-32.030;115.880;2023-12-29T01:47:57;101920.00;;;28.54;37.51
72370;BME280;60343;-32.030;115.880;2023-12-29T01:50:33;101901.66;;;28.33;37.48
72370;BME280;60343;-32.030;115.880;2023-12-29T01:53:08;101909.34;;;28.68;37.09
72370;BME280;60343;-32.030;115.880;2023-12-29T01:55:44;101917.16;;;28.76;37.26
72370;BME280;60343;-32.030;115.880;2023-12-29T01:58:25;101905.31;;;28.81;37.04
72370;BME280;60343;-32.030;115.880;2023-12-29T02:01:01;101903.69;;;28.48;37.54
72370;BME280;60343;-32.030;115.880;2023-12-29T02:03:37;101906.91;;;28.35;38.06
72370;BME280;60343;-32.030;115.880;2023-12-29T02:06:14;101896.94;;;28.29;38.02
72370;BME280;60343;-32.030;115.880;2023-12-29T02:08:51;101895.91;;;27.49;38.88
72370;BME280;60343;-32.030;115.880;2023-12-29T02:11:27;101912.13;;;27.07;39.86
72370;BME280;60343;-32.030;115.880;2023-12-29T02:14:08;101911.78;;;27.20;39.96
72370;BME280;60343;-32.030;115.880;2023-12-29T02:16:49;101916.81;;;27.28;40.01
72370;BME280;60343;-32.030;115.880;2023-12-29T02:19:38;101900.88;;;27.79;38.76
72370;BME280;60343;-32.030;115.880;2023-12-29T02:22:14;101893.78;;;27.35;39.03
72370;BME280;60343;-32.030;115.880;2023-12-29T02:24:55;101900.13;;;27.13;40.43
72370;BME280;60343;-32.030;115.880;2023-12-29T02:27:36;101902.59;;;27.37;40.25
72370;BME280;60343;-32.030;115.880;2023-12-29T02:30:20;101894.16;;;27.21;40.43
72370;BME280;60343;-32.030;115.880;2023-12-29T02:32:58;101888.88;;;27.15;40.44
72370;BME280;60343;-32.030;115.880;2023-12-29T02:35:38;101885.28;;;27.14;40.72
72370;BME280;60343;-32.030;115.880;2023-12-29T02:38:14;101882.97;;;27.50;40.16
72370;BME280;60343;-32.030;115.880;2023-12-29T02:40:56;101866.47;;;28.08;39.58
72370;BME280;60343;-32.030;115.880;2023-12-29T02:43:33;101859.13;;;28.19;39.01
72370;BME280;60343;-32.030;115.880;2023-12-29T02:46:08;101876.41;;;27.83;39.13
72370;BME280;60343;-32.030;115.880;2023-12-29T02:48:43;101870.63;;;27.79;39.50
72370;BME280;60343;-32.030;115.880;2023-12-29T02:51:18;101863.88;;;28.29;38.54
72370;BME280;60343;-32.030;115.880;2023-12-29T02:53:53;101866.47;;;28.87;37.24
72370;BME280;60343;-32.030;115.880;2023-12-29T02:56:34;101870.94;;;28.98;37.19
72370;BME280;60343;-32.030;115.880;2023-12-29T02:59:10;101861.63;;;29.15;36.61
72370;BME280;60343;-32.030;115.880;2023-12-29T03:01:45;101867.41;;;29.13;37.04
72370;BME280;60343;-32.030;115.880;2023-12-29T03:04:20;101859.41;;;29.07;37.17
72370;BME280;60343;-32.030;115.880;2023-12-29T03:06:55;101848.38;;;29.12;36.59
72370;BME280;60343;-32.030;115.880;2023-12-29T03:09:31;101845.56;;;28.91;37.08
72370;BME280;60343;-32.030;115.880;2023-12-29T03:12:12;101820.13;;;28.79;37.14
72370;BME280;60343;-32.030;115.880;2023-12-29T03:14:47;101820.34;;;29.45;36.63
72370;BME280;60343;-32.030;115.880;2023-12-29T03:17:23;101815.41;;;29.62;35.63
72370;BME280;60343;-32.030;115.880;2023-12-29T03:19:58;101804.56;;;29.25;36.35
72370;BME280;60343;-32.030;115.880;2023-12-29T03:22:33;101801.81;;;29.25;36.49
72370;BME280;60343;-32.030;115.880;2023-12-29T03:25:08;101795.25;;;29.47;36.76
72370;BME280;60343;-32.030;115.880;2023-12-29T03:27:50;101787.50;;;29.64;35.57
72370;BME280;60343;-32.030;115.880;2023-12-29T03:30:25;101784.22;;;29.52;35.89
72370;BME280;60343;-32.030;115.880;2023-12-29T03:33:00;101778.69;;;29.47;35.94
72370;BME280;60343;-32.030;115.880;2023-12-29T03:35:35;101776.22;;;29.91;35.07
72370;BME280;60343;-32.030;115.880;2023-12-29T03:38:10;101763.25;;;29.91;35.28
72370;BME280;60343;-32.030;115.880;2023-12-29T03:40:45;101760.19;;;29.82;34.63
72370;BME280;60343;-32.030;115.880;2023-12-29T03:43:26;101753.84;;;29.97;35.07
72370;BME280;60343;-32.030;115.880;2023-12-29T03:46:01;101746.38;;;30.13;35.63
72370;BME280;60343;-32.030;115.880;2023-12-29T03:48:47;101731.00;;;30.61;33.82
72370;BME280;60343;-32.030;115.880;2023-12-29T03:51:24;101733.47;;;30.67;33.74
72370;BME280;60343;-32.030;115.880;2023-12-29T03:54:02;101714.84;;;30.88;33.87
72370;BME280;60343;-32.030;115.880;2023-12-29T03:56:37;101710.31;;;31.07;33.27
72370;BME280;60343;-32.030;115.880;2023-12-29T03:59:19;101705.13;;;31.30;32.30
72370;BME280;60343;-32.030;115.880;2023-12-29T04:01:54;101695.78;;;31.26;32.08
72370;BME280;60343;-32.030;115.880;2023-12-29T04:04:29;101695.78;;;31.26;32.26
72370;BME280;60343;-32.030;115.880;2023-12-29T04:07:04;101686.50;;;31.40;31.86
72370;BME280;60343;-32.030;115.880;2023-12-29T04:09:39;101692.81;;;31.46;31.58
72370;BME280;60343;-32.030;115.880;2023-12-29T04:12:14;101686.50;;;31.40;32.45
72370;BME280;60343;-32.030;115.880;2023-12-29T04:14:55;101687.13;;;31.66;31.80
72370;BME280;60343;-32.030;115.880;2023-12-29T04:17:31;101684.53;;;31.75;30.77
72370;BME280;60343;-32.030;115.880;2023-12-29T04:20:07;101682.50;;;31.85;30.53
72370;BME280;60343;-32.030;115.880;2023-12-29T04:22:42;101663.47;;;31.79;30.76
72370;BME280;60343;-32.030;115.880;2023-12-29T04:25:17;101659.88;;;32.02;30.43
72370;BME280;60343;-32.030;115.880;2023-12-29T04:27:52;101655.91;;;32.13;29.91
72370;BME280;60343;-32.030;115.880;2023-12-29T04:30:33;101641.78;;;32.33;30.20
72370;BME280;60343;-32.030;115.880;2023-12-29T04:33:08;101649.38;;;32.65;30.14
72370;BME280;60343;-32.030;115.880;2023-12-29T04:35:44;101634.22;;;32.76;29.41
72370;BME280;60343;-32.030;115.880;2023-12-29T04:38:19;101627.19;;;32.65;29.16
72370;BME280;60343;-32.030;115.880;2023-12-29T04:40:55;101629.13;;;32.65;29.89
72370;BME280;60343;-32.030;115.880;2023-12-29T04:43:30;101615.78;;;32.86;30.06
72370;BME280;60343;-32.030;115.880;2023-12-29T04:46:11;101612.84;;;32.96;29.17
72370;BME280;60343;-32.030;115.880;2023-12-29T04:48:46;101611.09;;;33.18;29.29
72370;BME280;60343;-32.030;115.880;2023-12-29T04:51:24;101594.81;;;33.12;29.48
72370;BME280;60343;-32.030;115.880;2023-12-29T04:54:00;101595.19;;;33.24;29.09
72370;BME280;60343;-32.030;115.880;2023-12-29T04:56:35;101583.84;;;33.20;28.48
72370;BME280;60343;-32.030;115.880;2023-12-29T04:59:10;101590.47;;;33.25;28.95
72370;BME280;60343;-32.030;115.880;2023-12-29T05:01:51;101588.72;;;33.42;28.93
72370;BME280;60343;-32.030;115.880;2023-12-29T05:04:26;101583.78;;;33.39;28.88
72370;BME280;60343;-32.030;115.880;2023-12-29T05:07:01;101578.75;;;33.41;28.33
72370;BME280;60343;-32.030;115.880;2023-12-29T05:09:37;101576.19;;;33.45;28.91
72370;BME280;60343;-32.030;115.880;2023-12-29T05:12:12;101554.28;;;33.43;28.84
72370;BME280;60343;-32.030;115.880;2023-12-29T05:14:47;101559.44;;;33.63;28.68
72370;BME280;60343;-32.030;115.880;2023-12-29T05:17:28;101554.63;;;33.69;29.02
72370;BME280;60343;-32.030;115.880;2023-12-29T05:20:03;101565.50;;;33.93;28.19
72370;BME280;60343;-32.030;115.880;2023-12-29T05:22:39;101539.69;;;33.79;28.05
72370;BME280;60343;-32.030;115.880;2023-12-29T05:25:14;101541.97;;;33.03;28.73
72370;BME280;60343;-32.030;115.880;2023-12-29T05:27:51;101538.13;;;33.32;28.70
72370;BME280;60343;-32.030;115.880;2023-12-29T05:30:26;101534.75;;;33.76;28.89
72370;BME280;60343;-32.030;115.880;2023-12-29T05:33:07;101533.66;;;34.49;27.28
72370;BME280;60343;-32.030;115.880;2023-12-29T05:35:42;101532.63;;;35.11;26.36
72370;BME280;60343;-32.030;115.880;2023-12-29T05:38:18;101511.59;;;35.27;25.98
72370;BME280;60343;-32.030;115.880;2023-12-29T05:40:53;101524.41;;;35.06;26.87
72370;BME280;60343;-32.030;115.880;2023-12-29T05:43:29;101518.06;;;35.14;25.99
72370;BME280;60343;-32.030;115.880;2023-12-29T05:46:06;101520.47;;;35.29;27.41
72370;BME280;60343;-32.030;115.880;2023-12-29T05:48:49;101511.59;;;35.27;26.20
72370;BME280;60343;-32.030;115.880;2023-12-29T05:51:25;101499.66;;;35.27;26.02
72370;BME280;60343;-32.030;115.880;2023-12-29T05:54:00;101509.97;;;35.26;26.29
72370;BME280;60343;-32.030;115.880;2023-12-29T05:56:35;101508.03;;;35.05;26.14
72370;BME280;60343;-32.030;115.880;2023-12-29T05:59:10;101485.06;;;34.91;26.22
72370;BME280;60343;-32.030;115.880;2023-12-29T06:01:45;101499.56;;;35.10;26.11
72370;BME280;60343;-32.030;115.880;2023-12-29T06:04:27;101490.44;;;35.18;25.57
72370;BME280;60343;-32.030;115.880;2023-12-29T06:07:02;101496.44;;;35.11;26.24
72370;BME280;60343;-32.030;115.880;2023-12-29T06:09:37;101490.06;;;34.80;26.37
72370;BME280;60343;-32.030;115.880;2023-12-29T06:12:12;101485.34;;;34.67;26.73
72370;BME280;60343;-32.030;115.880;2023-12-29T06:14:47;101475.97;;;34.54;26.66
72370;BME280;60343;-32.030;115.880;2023-12-29T06:17:23;101482.03;;;33.98;27.31
72370;BME280;60343;-32.030;115.880;2023-12-29T06:20:04;101474.34;;;33.81;27.29
72370;BME280;60343;-32.030;115.880;2023-12-29T06:22:41;101467.97;;;33.67;27.42
72370;BME280;60343;-32.030;115.880;2023-12-29T06:25:16;101476.03;;;33.55;28.12
72370;BME280;60343;-32.030;115.880;2023-12-29T06:27:51;101474.44;;;34.26;26.65
72370;BME280;60343;-32.030;115.880;2023-12-29T06:30:26;101462.28;;;34.66;26.07
72370;BME280;60343;-32.030;115.880;2023-12-29T06:33:02;101453.69;;;35.07;26.22
72370;BME280;60343;-32.030;115.880;2023-12-29T06:35:43;101454.31;;;35.35;25.17
72370;BME280;60343;-32.030;115.880;2023-12-29T06:38:18;101440.00;;;35.76;24.89
72370;BME280;60343;-32.030;115.880;2023-12-29T06:40:53;101437.53;;;36.35;23.96
72370;BME280;60343;-32.030;115.880;2023-12-29T06:43:28;101434.06;;;36.12;24.35
72370;BME280;60343;-32.030;115.880;2023-12-29T06:46:04;101431.81;;;36.14;24.00
72370;BME280;60343;-32.030;115.880;2023-12-29T06:48:40;101425.41;;;35.70;23.65
72370;BME280;60343;-32.030;115.880;2023-12-29T06:51:16;101422.31;;;36.06;24.93
72370;BME280;60343;-32.030;115.880;2023-12-29T06:53:52;101417.22;;;36.26;23.90
72370;BME280;60343;-32.030;115.880;2023-12-29T06:56:27;101419.00;;;36.04;24.04
72370;BME280;60343;-32.030;115.880;2023-12-29T06:59:02;101412.47;;;35.75;24.17
72370;BME280;60343;-32.030;115.880;2023-12-29T07:01:40;101406.97;;;35.44;24.79
72370;BME280;60343;-32.030;115.880;2023-12-29T07:04:15;101405.91;;;35.96;24.11
72370;BME280;60343;-32.030;115.880;2023-12-29T07:06:57;101403.63;;;36.16;23.54
72370;BME280;60343;-32.030;115.880;2023-12-29T07:09:32;101401.78;;;35.94;24.14
72370;BME280;60343;-32.030;115.880;2023-12-29T07:12:07;101405.56;;;35.89;23.99
72370;BME280;60343;-32.030;115.880;2023-12-29T07:14:43;101396.06;;;35.73;24.35
72370;BME280;60343;-32.030;115.880;2023-12-29T07:17:18;101390.78;;;35.46;24.20
72370;BME280;60343;-32.030;115.880;2023-12-29T07:19:53;101388.28;;;35.36;24.52
72370;BME280;60343;-32.030;115.880;2023-12-29T07:22:34;101392.53;;;35.33;25.26
72370;BME280;60343;-32.030;115.880;2023-12-29T07:25:10;101382.03;;;35.21;25.18
72370;BME280;60343;-32.030;115.880;2023-12-29T07:27:45;101381.56;;;34.88;25.30
72370;BME280;60343;-32.030;115.880;2023-12-29T07:30:20;101377.81;;;34.62;25.56
72370;BME280;60343;-32.030;115.880;2023-12-29T07:32:55;101381.66;;;34.44;25.88
72370;BME280;60343;-32.030;115.880;2023-12-29T07:35:31;101375.84;;;34.54;26.11
72370;BME280;60343;-32.030;115.880;2023-12-29T07:38:12;101372.66;;;34.69;25.61
72370;BME280;60343;-32.030;115.880;2023-12-29T07:40:48;101380.75;;;34.57;25.53
72370;BME280;60343;-32.030;115.880;2023-12-29T07:43:23;101372.25;;;34.31;25.59
72370;BME280;60343;-32.030;115.880;2023-12-29T07:45:58;101375.41;;;34.16;26.12
72370;BME280;60343;-32.030;115.880;2023-12-29T07:48:33;101377.94;;;34.04;26.00
72370;BME280;60343;-32.030;115.880;2023-12-29T07:51:08;101371.81;;;33.93;26.16
72370;BME280;60343;-32.030;115.880;2023-12-29T07:53:49;101375.34;;;33.85;26.34
72370;BME280;60343;-32.030;115.880;2023-12-29T07:56:24;101358.06;;;33.88;26.62
72370;BME280;60343;-32.030;115.880;2023-12-29T07:59:00;101358.41;;;33.95;26.38
72370;BME280;60343;-32.030;115.880;2023-12-29T08:01:35;101369.91;;;33.80;26.42
72370;BME280;60343;-32.030;115.880;2023-12-29T08:04:10;101361.31;;;33.68;26.55
72370;BME280;60343;-32.030;115.880;2023-12-29T08:06:45;101356.25;;;33.70;26.91
72370;BME280;60343;-32.030;115.880;2023-12-29T08:09:27;101360.38;;;33.73;26.69
72370;BME280;60343;-32.030;115.880;2023-12-29T08:12:02;101347.91;;;33.70;26.72
72370;BME280;60343;-32.030;115.880;2023-12-29T08:14:37;101346.41;;;33.64;26.77
72370;BME280;60343;-32.030;115.880;2023-12-29T08:17:12;101335.19;;;33.69;26.70
72370;BME280;60343;-32.030;115.880;2023-12-29T08:19:48;101339.47;;;33.75;26.44
72370;BME280;60343;-32.030;115.880;2023-12-29T08:22:23;101331.59;;;33.69;26.83
72370;BME280;60343;-32.030;115.880;2023-12-29T08:25:04;101329.19;;;33.76;26.52
72370;BME280;60343;-32.030;115.880;2023-12-29T08:27:40;101333.16;;;33.83;26.86
72370;BME280;60343;-32.030;115.880;2023-12-29T08:30:15;101326.22;;;33.72;26.61
72370;BME280;60343;-32.030;115.880;2023-12-29T08:32:51;101328.88;;;33.77;26.25
72370;BME280;60343;-32.030;115.880;2023-12-29T08:35:26;101326.78;;;33.47;26.38
72370;BME280;60343;-32.030;115.880;2023-12-29T08:38:01;101328.91;;;33.28;26.85
72370;BME280;60343;-32.030;115.880;2023-12-29T08:40:43;101329.72;;;33.14;26.67
72370;BME280;60343;-32.030;115.880;2023-12-29T08:43:18;101320.88;;;33.12;27.18
72370;BME280;60343;-32.030;115.880;2023-12-29T08:45:54;101318.41;;;33.11;27.22
72370;BME280;60343;-32.030;115.880;2023-12-29T08:48:29;101319.69;;;33.18;26.95
72370;BME280;60343;-32.030;115.880;2023-12-29T08:51:04;101314.50;;;33.26;27.25
72370;BME280;60343;-32.030;115.880;2023-12-29T08:53:39;101326.53;;;33.35;26.85
72370;BME280;60343;-32.030;115.880;2023-12-29T08:56:21;101324.47;;;33.27;26.76
72370;BME280;60343;-32.030;115.880;2023-12-29T08:58:56;101322.94;;;33.07;27.01
72370;BME280;60343;-32.030;115.880;2023-12-29T09:01:32;101333.97;;;32.98;27.57
72370;BME280;60343;-32.030;115.880;2023-12-29T09:04:07;101327.97;;;33.05;27.14
72370;BME280;60343;-32.030;115.880;2023-12-29T09:06:42;101338.06;;;33.14;27.22
72370;BME280;60343;-32.030;115.880;2023-12-29T09:09:17;101334.88;;;33.21;27.04
72370;BME280;60343;-32.030;115.880;2023-12-29T09:11:58;101341.13;;;33.27;26.89
72370;BME280;60343;-32.030;115.880;2023-12-29T09:14:33;101336.22;;;33.24;26.91
72370;BME280;60343;-32.030;115.880;2023-12-29T09:17:08;101348.63;;;33.12;26.76
72370;BME280;60343;-32.030;115.880;2023-12-29T09:19:44;101352.75;;;33.01;27.03
72370;BME280;60343;-32.030;115.880;2023-12-29T09:22:19;101347.94;;;32.93;27.19
72370;BME280;60343;-32.030;115.880;2023-12-29T09:24:55;101352.25;;;32.86;27.31
72370;BME280;60343;-32.030;115.880;2023-12-29T09:27:36;101356.78;;;32.68;27.47
72370;BME280;60343;-32.030;115.880;2023-12-29T09:30:12;101354.88;;;32.63;27.90
72370;BME280;60343;-32.030;115.880;2023-12-29T09:32:47;101358.78;;;32.62;27.69
72370;BME280;60343;-32.030;115.880;2023-12-29T09:35:22;101357.66;;;32.63;27.74
72370;BME280;60343;-32.030;115.880;2023-12-29T09:37:58;101362.38;;;32.63;27.31
72370;BME280;60343;-32.030;115.880;2023-12-29T09:40:33;101352.50;;;32.57;27.74
72370;BME280;60343;-32.030;115.880;2023-12-29T09:43:15;101359.81;;;32.53;27.79
72370;BME280;60343;-32.030;115.880;2023-12-29T09:45:53;101365.53;;;32.56;27.85
72370;BME280;60343;-32.030;115.880;2023-12-29T09:48:31;101361.22;;;32.50;27.78
72370;BME280;60343;-32.030;115.880;2023-12-29T09:51:07;101351.78;;;32.38;27.85
72370;BME280;60343;-32.030;115.880;2023-12-29T09:53:44;101348.16;;;32.23;28.14
72370;BME280;60343;-32.030;115.880;2023-12-29T09:56:20;101345.97;;;32.20;27.81
72370;BME280;60343;-32.030;115.880;2023-12-29T09:59:03;101357.06;;;32.20;28.16
72370;BME280;60343;-32.030;115.880;2023-12-29T10:01:38;101363.72;;;32.19;28.03
72370;BME280;60343;-32.030;115.880;2023-12-29T10:04:14;101364.63;;;32.15;28.05
72370;BME280;60343;-32.030;115.880;2023-12-29T10:06:50;101363.00;;;32.14;28.02
72370;BME280;60343;-32.030;115.880;2023-12-29T10:09:28;101354.44;;;32.10;27.96
72370;BME280;60343;-32.030;115.880;2023-12-29T10:12:05;101364.19;;;32.08;27.74
72370;BME280;60343;-32.030;115.880;2023-12-29T10:14:52;101366.22;;;32.02;27.60
72370;BME280;60343;-32.030;115.880;2023-12-29T10:17:41;101363.41;;;31.88;27.97
72370;BME280;60343;-32.030;115.880;2023-12-29T10:20:31;101360.78;;;31.78;28.26
72370;BME280;60343;-32.030;115.880;2023-12-29T10:23:08;101360.53;;;31.75;28.05
72370;BME280;60343;-32.030;115.880;2023-12-29T10:25:44;101353.97;;;31.71;28.20
72370;BME280;60343;-32.030;115.880;2023-12-29T10:28:19;101359.59;;;31.66;28.59
72370;BME280;60343;-32.030;115.880;2023-12-29T10:31:01;101372.22;;;31.53;28.35
72370;BME280;60343;-32.030;115.880;2023-12-29T10:33:37;101371.44;;;31.47;28.37
72370;BME280;60343;-32.030;115.880;2023-12-29T10:36:12;101367.41;;;31.40;28.95
72370;BME280;60343;-32.030;115.880;2023-12-29T10:38:47;101375.19;;;31.38;28.84
72370;BME280;60343;-32.030;115.880;2023-12-29T10:41:24;101374.03;;;31.39;28.83
72370;BME280;60343;-32.030;115.880;2023-12-29T10:44:07;101379.44;;;31.30;28.96
72370;BME280;60343;-32.030;115.880;2023-12-29T10:46:51;101383.38;;;31.24;29.28
72370;BME280;60343;-32.030;115.880;2023-12-29T10:49:26;101384.53;;;31.23;28.93
72370;BME280;60343;-32.030;115.880;2023-12-29T10:52:02;101384.34;;;31.15;29.20
72370;BME280;60343;-32.030;115.880;2023-12-29T10:54:45;101382.00;;;31.03;29.41
72370;BME280;60343;-32.030;115.880;2023-12-29T10:57:20;101382.53;;;31.00;29.20
72370;BME280;60343;-32.030;115.880;2023-12-29T10:59:56;101392.34;;;30.92;29.08
72370;BME280;60343;-32.030;115.880;2023-12-29T11:02:37;101391.84;;;30.85;29.29
72370;BME280;60343;-32.030;115.880;2023-12-29T11:05:13;101387.75;;;30.83;29.19
72370;BME280;60343;-32.030;115.880;2023-12-29T11:07:48;101393.56;;;30.81;29.29
72370;BME280;60343;-32.030;115.880;2023-12-29T11:10:23;101396.19;;;30.67;29.38
72370;BME280;60343;-32.030;115.880;2023-12-29T11:12:59;101403.44;;;30.58;29.35
72370;BME280;60343;-32.030;115.880;2023-12-29T11:15:35;101403.81;;;30.52;29.56
72370;BME280;60343;-32.030;115.880;2023-12-29T11:18:17;101385.34;;;30.47;29.45
72370;BME280;60343;-32.030;115.880;2023-12-29T11:20:54;101400.34;;;30.36;30.01
72370;BME280;60343;-32.030;115.880;2023-12-29T11:23:35;101381.31;;;30.30;29.76
72370;BME280;60343;-32.030;115.880;2023-12-29T11:26:13;101393.28;;;30.20;30.07
72370;BME280;60343;-32.030;115.880;2023-12-29T11:28:48;101397.22;;;30.09;30.14
72370;BME280;60343;-32.030;115.880;2023-12-29T11:31:25;101386.81;;;30.01;30.33
72370;BME280;60343;-32.030;115.880;2023-12-29T11:34:12;101391.81;;;29.94;30.29
72370;BME280;60343;-32.030;115.880;2023-12-29T11:37:11;101387.72;;;29.91;30.38
72370;BME280;60343;-32.030;115.880;2023-12-29T11:39:52;101386.94;;;29.80;30.41
72370;BME280;60343;-32.030;115.880;2023-12-29T11:42:35;101386.94;;;29.80;30.44
72370;BME280;60343;-32.030;115.880;2023-12-29T11:45:29;101395.28;;;29.70;30.75
72370;BME280;60343;-32.030;115.880;2023-12-29T11:48:05;101388.13;;;29.64;30.46
72370;BME280;60343;-32.030;115.880;2023-12-29T11:50:46;101388.72;;;29.61;30.88
72370;BME280;60343;-32.030;115.880;2023-12-29T11:53:32;101392.84;;;29.59;30.80
72370;BME280;60343;-32.030;115.880;2023-12-29T11:56:15;101394.81;;;29.53;30.93
72370;BME280;60343;-32.030;115.880;2023-12-29T11:58:51;101399.53;;;29.48;30.88
72370;BME280;60343;-32.030;115.880;2023-12-29T12:01:36;101404.50;;;29.51;30.80
72370;BME280;60343;-32.030;115.880;2023-12-29T12:04:37;101404.81;;;29.44;31.10
72370;BME280;60343;-32.030;115.880;2023-12-29T12:07:55;101402.06;;;29.39;31.12
72370;BME280;60343;-32.030;115.880;2023-12-29T12:10:31;101399.34;;;29.34;31.37
72370;BME280;60343;-32.030;115.880;2023-12-29T12:13:10;101399.91;;;29.26;31.44
72370;BME280;60343;-32.030;115.880;2023-12-29T12:15:45;101404.88;;;29.19;31.64
72370;BME280;60343;-32.030;115.880;2023-12-29T12:18:21;101396.09;;;29.12;31.35
72370;BME280;60343;-32.030;115.880;2023-12-29T12:20:56;101403.00;;;29.09;31.52
72370;BME280;60343;-32.030;115.880;2023-12-29T12:23:38;101391.13;;;29.09;31.41
72370;BME280;60343;-32.030;115.880;2023-12-29T12:26:14;101403.00;;;29.09;31.54
72370;BME280;60343;-32.030;115.880;2023-12-29T12:28:53;101407.44;;;29.05;31.56
72370;BME280;60343;-32.030;115.880;2023-12-29T12:31:28;101402.75;;;29.00;31.41
72370;BME280;60343;-32.030;115.880;2023-12-29T12:34:03;101404.13;;;28.98;31.83
72370;BME280;60343;-32.030;115.880;2023-12-29T12:36:48;101407.47;;;28.95;31.74
72370;BME280;60343;-32.030;115.880;2023-12-29T12:39:39;101406.66;;;28.84;32.23
72370;BME280;60343;-32.030;115.880;2023-12-29T12:42:15;101408.59;;;28.79;32.30
72370;BME280;60343;-32.030;115.880;2023-12-29T12:44:56;101403.38;;;28.72;32.33
72370;BME280;60343;-32.030;115.880;2023-12-29T12:47:43;101405.81;;;28.69;32.43
72370;BME280;60343;-32.030;115.880;2023-12-29T12:50:19;101412.75;;;28.66;32.34
72370;BME280;60343;-32.030;115.880;2023-12-29T12:52:54;101417.69;;;28.59;32.83
72370;BME280;60343;-32.030;115.880;2023-12-29T12:55:37;101414.38;;;28.57;32.62
72370;BME280;60343;-32.030;115.880;2023-12-29T12:58:13;101423.19;;;28.59;32.71
72370;BME280;60343;-32.030;115.880;2023-12-29T13:00:51;101424.88;;;28.55;32.71
72370;BME280;60343;-32.030;115.880;2023-12-29T13:03:26;101430.38;;;28.50;33.08
72370;BME280;60343;-32.030;115.880;2023-12-29T13:06:04;101436.72;;;28.45;33.18
72370;BME280;60343;-32.030;115.880;2023-12-29T13:08:39;101445.00;;;28.40;33.50
72370;BME280;60343;-32.030;115.880;2023-12-29T13:11:20;101438.09;;;28.33;33.63